createdAt,value
2019-01-16T07:41:59.978Z,19.10
2019-01-16T07:44:07.519Z,19.18
2019-01-16T07:46:16.966Z,19.24
2019-01-16T07:55:39.838Z,19.61
2019-01-16T07:59:57.798Z,19.52
2019-01-16T08:02:12.170Z,19.48
2019-01-16T08:06:30.210Z,19.43
2019-01-16T08:08:44.170Z,19.44
2019-01-16T08:10:57.684Z,19.44
2019-01-16T08:13:08.343Z,19.47
2019-01-16T08:15:21.898Z,19.48
2019-01-16T08:17:31.308Z,19.50
2019-01-16T08:19:40.744Z,19.54
2019-01-16T08:21:55.121Z,19.60
2019-01-16T08:24:02.484Z,19.62
2019-01-16T08:26:11.094Z,19.62
2019-01-16T08:28:25.062Z,19.62
2019-01-16T08:30:32.429Z,19.61
2019-01-16T08:34:27.934Z,19.65
2019-01-16T08:36:35.348Z,19.63
2019-01-16T08:38:42.719Z,19.60
2019-01-16T08:40:57.100Z,19.59
2019-01-16T08:43:04.460Z,19.57
2019-01-16T08:45:11.850Z,19.55
2019-01-16T08:47:26.230Z,19.54
2019-01-16T08:49:34.816Z,19.56
2019-01-16T08:51:44.249Z,19.56
2019-01-16T08:53:58.210Z,19.60
2019-01-16T08:56:06.808Z,19.60
2019-01-16T08:58:14.190Z,19.61
2019-01-16T09:00:28.191Z,19.61
2019-01-16T09:02:35.522Z,19.61
2019-01-16T09:04:42.908Z,19.64
2019-01-16T09:06:57.282Z,19.64
2019-01-16T09:09:11.220Z,19.67
2019-01-16T09:11:18.588Z,19.67
2019-01-16T09:13:25.975Z,19.68
2019-01-16T09:15:40.349Z,19.63
2019-01-16T09:17:47.718Z,19.62
2019-01-16T09:19:55.105Z,19.62
2019-01-16T09:22:09.058Z,19.62
2019-01-16T09:24:18.474Z,19.61
2019-01-16T09:26:25.860Z,19.60
2019-01-16T09:30:22.347Z,19.58
2019-01-16T09:32:30.003Z,19.59
2019-01-16T09:34:43.551Z,19.58
2019-01-16T09:36:50.920Z,19.56
2019-01-16T09:38:59.537Z,19.54
2019-01-16T09:41:14.732Z,19.54
2019-01-16T09:43:22.098Z,19.54
2019-01-16T09:45:30.710Z,19.50
2019-01-16T09:47:44.672Z,19.49
2019-01-16T09:49:53.266Z,19.48
2019-01-16T09:52:06.797Z,19.45
2019-01-16T09:54:20.756Z,19.42
2019-01-16T09:56:28.126Z,19.41
2019-01-16T09:58:35.512Z,19.35
2019-01-16T10:00:49.476Z,19.36
2019-01-16T10:02:58.069Z,19.34
2019-01-16T10:05:05.458Z,19.30
2019-01-16T10:07:20.650Z,19.30
2019-01-16T10:09:28.011Z,19.28
2019-01-16T10:11:36.629Z,19.27
2019-01-16T10:13:50.590Z,19.23
2019-01-16T10:15:59.187Z,19.23
2019-01-16T10:18:07.802Z,19.22
2019-01-16T10:20:25.452Z,19.21
2019-01-16T10:22:32.816Z,19.17
2019-01-16T10:24:40.250Z,19.16
2019-01-16T10:26:54.579Z,19.15
2019-01-16T10:29:03.991Z,19.15
2019-01-16T10:31:12.605Z,19.10
2019-01-16T10:33:30.665Z,19.09
2019-01-16T10:35:38.026Z,19.10
2019-01-16T10:37:46.653Z,19.07
2019-01-16T10:40:00.608Z,19.06
2019-01-16T10:42:14.566Z,19.03
2019-01-16T10:44:32.657Z,19.04
2019-01-16T10:46:39.961Z,19.00
2019-01-16T10:48:49.792Z,19.01
2019-01-16T10:51:03.289Z,18.98
2019-01-16T10:53:10.319Z,18.98
2019-01-16T10:55:18.928Z,18.96
2019-01-16T10:57:32.481Z,18.94
2019-01-16T10:59:39.841Z,18.95
2019-01-16T11:01:47.232Z,18.94
2019-01-16T11:04:01.606Z,18.92
2019-01-16T11:06:08.969Z,18.92
2019-01-16T11:08:17.584Z,18.90
2019-01-16T11:10:31.548Z,18.91
2019-01-16T11:12:38.913Z,18.92
2019-01-16T11:14:52.503Z,18.91
2019-01-16T11:17:07.635Z,18.89
2019-01-16T11:19:15.005Z,18.86
2019-01-16T11:21:23.614Z,18.84
2019-01-16T11:23:37.580Z,18.85
2019-01-16T11:25:46.997Z,18.85
2019-01-16T11:27:54.380Z,18.84
2019-01-16T11:30:10.810Z,18.82
2019-01-16T11:32:18.167Z,18.83
2019-01-16T11:34:26.815Z,18.79
2019-01-16T11:36:44.840Z,18.79
2019-01-16T11:38:52.204Z,18.77
2019-01-16T11:40:59.589Z,18.77
2019-01-16T11:43:14.782Z,18.77
2019-01-16T11:45:23.384Z,18.76
2019-01-16T11:47:30.774Z,18.76
2019-01-16T11:49:44.736Z,18.75
2019-01-16T11:51:59.489Z,18.74
2019-01-16T11:54:06.860Z,18.76
2019-01-16T11:56:20.178Z,18.74
2019-01-16T12:00:14.652Z,18.70
2019-01-16T12:02:25.342Z,18.69
2019-01-16T12:06:21.839Z,18.66
2019-01-16T12:08:29.480Z,18.65
2019-01-16T12:10:43.031Z,18.66
2019-01-16T12:12:50.401Z,18.62
2019-01-16T12:14:57.785Z,18.61
2019-01-16T12:17:14.208Z,18.58
2019-01-16T12:19:25.672Z,18.56
2019-01-16T12:21:42.091Z,18.56
2019-01-16T12:23:49.453Z,18.62
2019-01-16T12:25:58.089Z,18.60
2019-01-16T12:29:52.573Z,18.56
2019-01-16T12:32:10.833Z,18.55
2019-01-16T12:34:18.195Z,18.39
2019-01-16T12:36:25.589Z,18.35
2019-01-16T12:38:42.006Z,18.38
2019-01-16T12:40:50.600Z,18.42
2019-01-16T12:42:57.996Z,18.49
2019-01-16T12:45:11.953Z,18.55
2019-01-16T12:47:21.366Z,18.63
2019-01-16T12:49:29.978Z,18.69
2019-01-16T12:51:43.941Z,18.76
2019-01-16T12:53:53.358Z,18.82
2019-01-16T12:56:01.974Z,18.89
2019-01-16T12:58:15.946Z,18.94
2019-01-16T13:00:23.300Z,18.97
2019-01-16T13:02:31.914Z,18.99
2019-01-16T13:04:49.980Z,19.02
2019-01-16T13:06:59.390Z,19.05
2019-01-16T13:09:06.774Z,19.09
2019-01-16T13:11:21.965Z,19.13
2019-01-16T13:13:30.565Z,19.16
2019-01-16T13:15:12.561Z,19.23
2019-01-16T13:17:26.923Z,19.29
2019-01-16T13:19:34.293Z,19.34
2019-01-16T13:21:41.676Z,19.39
2019-01-16T13:23:55.698Z,19.42
2019-01-16T13:26:03.418Z,19.47
2019-01-16T13:28:10.805Z,19.51
2019-01-16T13:30:42.700Z,19.85
2019-01-16T13:32:56.316Z,20.27
2019-01-16T13:35:11.058Z,20.56
2019-01-16T13:37:18.446Z,20.80
2019-01-16T13:39:32.409Z,20.91
2019-01-16T13:43:58.217Z,20.81
2019-01-16T13:46:12.183Z,20.84
2019-01-16T13:50:08.660Z,20.79
2019-01-16T13:54:04.147Z,20.76
2019-01-16T13:56:11.818Z,20.67
2019-01-16T13:58:26.193Z,20.76
2019-01-16T14:00:33.557Z,20.81
2019-01-16T14:02:40.963Z,20.82
2019-01-16T14:04:56.559Z,20.75
2019-01-16T14:08:52.046Z,20.86
2019-01-16T14:11:10.115Z,20.96
2019-01-16T14:13:18.699Z,20.96
2019-01-16T14:15:33.532Z,20.93
2019-01-16T14:17:41.262Z,20.99
2019-01-16T14:19:50.696Z,21.07
2019-01-16T14:22:06.298Z,21.34
2019-01-16T14:24:14.889Z,21.47
2019-01-16T14:26:28.423Z,21.44
2019-01-16T14:28:43.202Z,21.46
2019-01-16T14:30:50.576Z,21.51
2019-01-16T14:33:04.123Z,21.58
2019-01-16T14:35:11.485Z,21.49
2019-01-16T14:37:18.875Z,21.42
2019-01-16T14:39:33.246Z,21.38
2019-01-16T14:41:46.807Z,21.42
2019-01-16T14:43:54.140Z,21.59
2019-01-16T14:46:10.158Z,21.45
2019-01-16T14:48:17.518Z,21.40
2019-01-16T14:50:24.912Z,21.33
2019-01-16T14:52:39.278Z,21.29
2019-01-16T14:54:46.646Z,21.36
2019-01-16T14:56:55.262Z,21.37
2019-01-16T14:59:09.228Z,21.25
2019-01-16T15:01:16.587Z,21.13
2019-01-16T15:03:23.980Z,21.05
2019-01-16T15:05:38.353Z,20.83
2019-01-16T15:07:45.717Z,20.96
2019-01-16T15:09:53.103Z,20.92
2019-01-16T15:12:07.482Z,20.85
2019-01-16T15:14:14.839Z,20.82
2019-01-16T15:16:22.226Z,20.93
2019-01-16T15:18:36.188Z,20.98
2019-01-16T15:20:43.960Z,20.87
2019-01-16T15:22:52.578Z,20.78
2019-01-16T15:25:07.360Z,20.72
2019-01-16T15:27:14.726Z,20.76
2019-01-16T15:29:22.114Z,20.88
2019-01-16T15:31:36.491Z,20.86
2019-01-16T15:33:45.902Z,20.80
2019-01-16T15:35:58.215Z,20.70
2019-01-16T15:38:08.477Z,20.75
2019-01-16T15:40:15.846Z,20.76
2019-01-16T15:42:23.229Z,20.81
2019-01-16T15:44:38.422Z,20.76
2019-01-16T15:46:47.839Z,20.69
2019-01-16T15:48:55.222Z,20.71
2019-01-16T15:51:09.189Z,20.75
2019-01-16T15:53:18.598Z,20.79
2019-01-16T15:55:33.385Z,20.76
2019-01-16T15:57:41.974Z,20.69
2019-01-16T15:59:49.360Z,20.66
2019-01-16T16:02:03.331Z,20.73
2019-01-16T16:04:10.696Z,20.77
2019-01-16T16:06:18.078Z,20.75
2019-01-16T16:08:32.449Z,20.68
2019-01-16T16:10:43.097Z,20.59
2019-01-16T16:12:50.479Z,20.65
2019-01-16T16:15:04.444Z,20.75
2019-01-16T16:17:11.810Z,20.77
2019-01-16T16:19:19.205Z,20.74
2019-01-16T16:21:33.159Z,20.70
2019-01-16T16:23:41.758Z,20.74
2019-01-16T16:25:49.147Z,20.83
2019-01-16T16:28:04.331Z,20.95
2019-01-16T16:30:12.928Z,20.97
2019-01-16T16:32:21.546Z,20.92
2019-01-16T16:34:35.507Z,20.88
2019-01-16T16:36:46.150Z,20.97
2019-01-16T16:38:53.537Z,21.05
2019-01-16T16:41:07.496Z,20.99
2019-01-16T16:43:14.903Z,20.97
2019-01-16T16:45:22.258Z,21.02
2019-01-16T16:47:36.218Z,20.98
2019-01-16T16:49:44.805Z,21.07
2019-01-16T16:51:52.194Z,21.20
2019-01-16T16:54:07.387Z,21.05
2019-01-16T16:56:14.754Z,21.10
2019-01-16T16:58:24.185Z,21.12
2019-01-16T17:00:38.555Z,21.05
2019-01-16T17:02:49.204Z,21.27
2019-01-16T17:04:56.586Z,21.32
2019-01-16T17:07:12.192Z,21.31
2019-01-16T17:09:19.556Z,21.28
2019-01-16T17:11:28.198Z,21.35
2019-01-16T17:13:48.040Z,21.32
2019-01-16T17:15:51.141Z,21.32
2019-01-16T17:17:58.523Z,21.29
2019-01-16T17:20:12.486Z,21.22
2019-01-16T17:22:21.079Z,21.16
2019-01-16T17:24:28.467Z,21.11
2019-01-16T17:26:42.430Z,21.02
2019-01-16T17:28:49.797Z,20.85
2019-01-16T17:30:57.179Z,20.92
2019-01-16T17:33:11.558Z,20.93
2019-01-16T17:35:20.402Z,20.91
2019-01-16T17:37:27.536Z,20.66
2019-01-16T17:41:22.016Z,20.80
2019-01-16T17:43:29.626Z,20.79
2019-01-16T17:45:43.180Z,20.67
2019-01-16T17:47:51.772Z,20.56
2019-01-16T17:50:00.388Z,20.45
2019-01-16T17:52:15.172Z,20.35
2019-01-16T17:54:23.770Z,20.48
2019-01-16T17:56:31.158Z,20.49
2019-01-16T17:58:45.117Z,20.33
2019-01-16T18:00:53.719Z,20.26
2019-01-16T18:03:02.327Z,20.34
2019-01-16T18:05:18.340Z,20.45
2019-01-16T18:07:27.750Z,20.42
2019-01-16T18:09:35.138Z,20.34
2019-01-16T18:11:49.099Z,20.22
2019-01-16T18:13:56.466Z,20.26
2019-01-16T18:16:03.852Z,20.42
2019-01-16T18:18:20.271Z,20.40
2019-01-16T18:20:27.646Z,20.27
2019-01-16T18:22:35.024Z,20.22
2019-01-16T18:24:49.398Z,20.27
2019-01-16T18:26:56.764Z,20.39
2019-01-16T18:29:05.383Z,20.40
2019-01-16T18:31:19.342Z,20.30
2019-01-16T18:33:26.707Z,20.25
2019-01-16T18:35:35.327Z,20.32
2019-01-16T18:37:49.288Z,20.42
2019-01-16T18:39:57.061Z,20.41
2019-01-16T18:42:04.084Z,20.33
2019-01-16T18:44:18.410Z,20.25
2019-01-16T18:46:25.778Z,20.38
2019-01-16T18:48:33.163Z,20.46
2019-01-16T18:50:47.132Z,20.49
2019-01-16T18:52:55.800Z,20.41
2019-01-16T18:55:03.523Z,20.39
2019-01-16T18:57:18.707Z,20.41
2019-01-16T18:59:26.087Z,20.55
2019-01-16T19:01:34.692Z,20.60
2019-01-16T19:03:48.248Z,20.56
2019-01-16T19:05:56.837Z,20.51
2019-01-16T19:08:11.228Z,20.46
2019-01-16T19:10:20.625Z,20.62
2019-01-16T19:12:29.247Z,20.61
2019-01-16T19:14:43.204Z,20.58
2019-01-16T19:16:50.575Z,20.50
2019-01-16T19:18:57.969Z,20.44
2019-01-16T19:21:12.328Z,20.48
2019-01-16T19:23:19.695Z,20.56
2019-01-16T19:25:27.101Z,20.52
2019-01-16T19:27:41.462Z,20.46
2019-01-16T19:29:50.052Z,20.48
2019-01-16T19:31:58.670Z,20.50
2019-01-16T19:34:12.639Z,20.49
2019-01-16T19:36:21.228Z,20.37
2019-01-16T19:38:28.614Z,20.21
2019-01-16T19:40:42.160Z,20.06
2019-01-16T19:42:49.533Z,20.22
2019-01-16T19:44:56.915Z,20.24
2019-01-16T19:47:12.518Z,20.12
2019-01-16T19:49:21.938Z,20.01
2019-01-16T19:51:29.320Z,19.96
2019-01-16T19:53:43.279Z,20.15
2019-01-16T19:55:50.646Z,20.09
2019-01-16T19:57:58.034Z,19.76
2019-01-16T20:00:12.408Z,19.72
2019-01-16T20:02:20.999Z,19.73
2019-01-16T20:04:34.341Z,19.84
2019-01-16T20:06:48.520Z,19.82
2019-01-16T20:08:57.913Z,19.61
2019-01-16T20:11:05.294Z,19.61
2019-01-16T20:13:20.486Z,19.58
2019-01-16T20:15:27.850Z,19.78
2019-01-16T20:17:35.235Z,19.64
2019-01-16T20:19:50.446Z,19.50
2019-01-16T20:22:01.072Z,19.48
2019-01-16T20:26:27.333Z,19.67
2019-01-16T20:28:34.703Z,19.66
2019-01-16T20:30:42.088Z,19.62
2019-01-16T20:32:56.461Z,19.58
2019-01-16T20:35:09.638Z,19.54
2019-01-16T20:37:11.214Z,19.66
2019-01-16T20:39:26.409Z,19.75
2019-01-16T20:41:33.769Z,19.55
2019-01-16T20:43:41.156Z,19.46
2019-01-16T20:45:55.527Z,19.48
2019-01-16T20:48:02.896Z,19.54
2019-01-16T20:50:12.328Z,19.46
2019-01-16T20:52:27.521Z,19.38
2019-01-16T20:54:34.887Z,19.28
2019-01-16T20:56:43.561Z,19.30
2019-01-16T20:59:01.153Z,19.37
2019-01-16T21:01:10.568Z,19.50
2019-01-16T21:03:17.987Z,19.47
2019-01-16T21:05:32.328Z,19.29
2019-01-16T21:07:39.692Z,19.46
2019-01-16T21:09:48.314Z,19.51
2019-01-16T21:12:03.500Z,19.49
2019-01-16T21:16:22.353Z,19.13
2019-01-16T21:18:37.540Z,19.01
2019-01-16T21:20:52.278Z,18.79
2019-01-16T21:22:59.692Z,18.72
2019-01-16T21:25:16.388Z,18.55
2019-01-16T21:27:28.794Z,18.60
2019-01-16T21:29:44.357Z,18.47
2019-01-16T21:31:58.328Z,18.24
2019-01-16T21:34:07.733Z,18.16
2019-01-16T21:36:15.122Z,18.07
2019-01-16T21:38:31.537Z,17.97
2019-01-16T21:40:38.900Z,17.89
2019-01-16T21:42:46.290Z,17.81
2019-01-16T21:45:01.479Z,17.72
2019-01-16T21:47:10.075Z,17.63
2019-01-16T21:49:18.691Z,17.59
2019-01-16T21:51:32.244Z,17.55
2019-01-16T21:53:40.842Z,17.48
2019-01-16T21:55:55.198Z,17.46
2019-01-16T21:58:10.388Z,17.36
2019-01-16T22:00:23.887Z,17.35
2019-01-16T22:02:31.274Z,17.32
2019-01-16T22:04:46.470Z,17.27
2019-01-16T22:06:55.881Z,17.26
2019-01-16T22:09:04.498Z,17.24
2019-01-16T22:13:00.971Z,17.12
2019-01-16T22:15:08.636Z,17.11
2019-01-16T22:19:03.113Z,17.03
2019-01-16T22:21:10.723Z,16.99
2019-01-16T22:23:28.376Z,16.98
2019-01-16T22:25:35.772Z,16.92
2019-01-16T22:27:44.358Z,16.92
2019-01-16T22:29:59.550Z,16.87
2019-01-16T22:32:06.913Z,16.82
2019-01-16T22:34:23.315Z,16.80
2019-01-16T22:36:37.275Z,16.78
2019-01-16T22:38:46.689Z,16.78
2019-01-16T22:41:01.038Z,16.74
2019-01-16T22:44:57.544Z,16.66
2019-01-16T22:47:09.274Z,16.66
2019-01-16T22:49:18.710Z,16.59
2019-01-16T22:51:32.670Z,16.62
2019-01-16T22:53:43.425Z,16.64
2019-01-16T22:55:54.386Z,16.66
2019-01-16T22:58:11.472Z,16.63
2019-01-16T23:00:18.179Z,16.53
2019-01-16T23:02:26.789Z,16.53
2019-01-16T23:04:41.579Z,16.51
2019-01-16T23:06:50.165Z,16.46
2019-01-16T23:09:03.698Z,16.44
2019-01-16T23:11:17.658Z,16.45
2019-01-16T23:13:28.302Z,16.40
2019-01-16T23:15:35.702Z,16.42
2019-01-16T23:17:49.658Z,16.42
2019-01-16T23:20:00.301Z,16.41
2019-01-16T23:22:14.667Z,16.33
2019-01-16T23:24:23.260Z,16.33
2019-01-16T23:26:30.654Z,16.34
2019-01-16T23:28:44.608Z,16.29
2019-01-16T23:30:58.960Z,16.30
2019-01-16T23:35:16.987Z,16.23
2019-01-16T23:37:32.186Z,16.22
2019-01-16T23:39:40.780Z,16.19
2019-01-16T23:41:49.398Z,16.18
2019-01-16T23:44:03.776Z,16.17
2019-01-16T23:46:19.774Z,16.15
2019-01-16T23:48:28.349Z,16.17
2019-01-16T23:52:52.978Z,16.13
2019-01-16T23:55:00.344Z,16.09
2019-01-16T23:57:07.729Z,16.11
2019-01-16T23:59:21.697Z,16.13
